createdAt,value
2022-08-31T00:02:01.321Z,12.18
2022-08-31T00:04:28.930Z,12.68
2022-08-31T00:06:55.586Z,13.80
2022-08-31T00:09:22.203Z,12.70
2022-08-31T00:11:48.969Z,13.50
2022-08-31T00:14:16.014Z,12.98
2022-08-31T00:16:45.865Z,12.70
2022-08-31T00:19:13.348Z,12.70
2022-08-31T00:21:40.445Z,12.57
2022-08-31T00:24:07.625Z,12.57
2022-08-31T00:26:34.611Z,12.10
2022-08-31T00:29:01.607Z,11.90
2022-08-31T00:31:28.357Z,10.70
2022-08-31T00:33:56.644Z,11.50
2022-08-31T00:36:25.783Z,10.95
2022-08-31T00:38:54.099Z,12.32
2022-08-31T00:41:24.797Z,10.88
2022-08-31T00:44:04.284Z,10.43
2022-08-31T00:46:34.938Z,11.18
2022-08-31T00:52:01.278Z,11.43
2022-08-31T00:54:33.767Z,12.23
2022-08-31T00:57:00.964Z,12.00
2022-08-31T00:59:28.094Z,13.00
2022-08-31T01:01:54.816Z,13.57
2022-08-31T01:04:21.933Z,13.82
2022-08-31T01:06:49.728Z,13.85
2022-08-31T01:09:17.333Z,12.70
2022-08-31T01:11:44.100Z,12.10
2022-08-31T01:14:11.936Z,12.70
2022-08-31T01:16:45.391Z,11.77
2022-08-31T01:19:28.571Z,11.60
2022-08-31T01:22:04.757Z,13.25
2022-08-31T01:24:33.599Z,12.63
2022-08-31T01:27:04.678Z,12.85
2022-08-31T01:29:32.391Z,13.50
2022-08-31T01:31:59.143Z,11.45
2022-08-31T01:34:26.324Z,12.82
2022-08-31T01:36:53.188Z,11.90
2022-08-31T01:39:21.057Z,11.55
2022-08-31T01:41:47.859Z,11.88
2022-08-31T01:44:18.318Z,12.93
2022-08-31T01:46:46.235Z,13.02
2022-08-31T01:49:15.564Z,13.35
2022-08-31T01:51:43.558Z,13.43
2022-08-31T01:54:10.821Z,14.30
2022-08-31T01:56:43.719Z,14.48
2022-08-31T01:59:12.624Z,13.93
2022-08-31T02:01:44.332Z,14.40
2022-08-31T02:04:13.356Z,15.02
2022-08-31T02:06:46.818Z,14.90
2022-08-31T02:09:14.275Z,14.90
2022-08-31T02:11:41.379Z,14.90
2022-08-31T02:14:08.622Z,16.45
2022-08-31T02:16:36.673Z,20.98
2022-08-31T02:19:04.892Z,16.02
2022-08-31T02:21:31.667Z,15.70
2022-08-31T02:24:04.351Z,16.20
2022-08-31T02:26:31.122Z,15.63
2022-08-31T02:28:58.054Z,15.07
2022-08-31T02:31:24.759Z,15.15
2022-08-31T02:33:51.434Z,15.88
2022-08-31T02:36:18.111Z,15.77
2022-08-31T02:38:44.985Z,14.32
2022-08-31T02:41:11.671Z,14.25
2022-08-31T02:43:38.311Z,13.90
2022-08-31T02:46:05.107Z,14.68
2022-08-31T02:48:31.790Z,15.02
2022-08-31T02:51:05.833Z,15.73
2022-08-31T02:53:32.832Z,15.52
2022-08-31T02:55:59.595Z,15.93
2022-08-31T02:58:26.318Z,16.52
2022-08-31T03:00:53.264Z,15.75
2022-08-31T03:03:21.910Z,14.77
2022-08-31T03:05:50.235Z,14.82
2022-08-31T03:08:17.421Z,15.27
2022-08-31T03:10:44.134Z,18.67
2022-08-31T03:13:11.023Z,15.63
2022-08-31T03:15:37.727Z,16.17
2022-08-31T03:18:06.799Z,16.13
2022-08-31T03:20:34.704Z,16.42
2022-08-31T03:23:02.078Z,17.25
2022-08-31T03:25:30.705Z,17.42
2022-08-31T03:27:57.375Z,18.23
2022-08-31T03:30:24.264Z,17.30
2022-08-31T03:32:54.138Z,16.55
2022-08-31T03:35:27.774Z,17.83
2022-08-31T03:37:54.475Z,20.00
2022-08-31T03:40:21.169Z,17.45
2022-08-31T03:42:47.835Z,17.17
2022-08-31T03:45:14.444Z,15.93
2022-08-31T03:47:44.917Z,18.20
2022-08-31T03:50:12.410Z,16.92
2022-08-31T03:52:39.250Z,17.85
2022-08-31T03:55:07.043Z,17.65
2022-08-31T03:57:34.905Z,15.85
2022-08-31T04:00:02.196Z,15.68
2022-08-31T04:02:31.099Z,16.23
2022-08-31T04:05:01.142Z,17.05
2022-08-31T04:07:27.907Z,17.15
2022-08-31T04:09:56.052Z,18.15
2022-08-31T04:12:22.664Z,20.50
2022-08-31T04:14:49.352Z,17.42
2022-08-31T04:17:16.158Z,18.90
2022-08-31T04:19:42.786Z,19.77
2022-08-31T04:22:09.634Z,17.27
2022-08-31T04:24:36.576Z,16.75
2022-08-31T04:27:03.783Z,16.67
2022-08-31T04:29:30.777Z,16.27
2022-08-31T04:31:57.763Z,18.73
2022-08-31T04:34:25.583Z,15.57
2022-08-31T04:36:52.489Z,16.25
2022-08-31T04:39:19.438Z,17.17
2022-08-31T04:41:46.180Z,22.13
2022-08-31T04:44:16.450Z,15.15
2022-08-31T04:46:45.930Z,19.23
2022-08-31T04:49:14.749Z,18.48
2022-08-31T04:51:42.215Z,30.85
2022-08-31T04:54:11.895Z,17.88
2022-08-31T04:56:42.615Z,20.23
2022-08-31T04:59:12.474Z,14.05
2022-08-31T05:01:42.487Z,18.10
2022-08-31T05:04:12.507Z,14.65
2022-08-31T05:06:41.485Z,15.90
2022-08-31T05:09:11.045Z,15.20
2022-08-31T05:11:38.306Z,12.32
2022-08-31T05:14:07.119Z,16.83
2022-08-31T05:16:34.655Z,11.18
2022-08-31T05:19:01.759Z,8.45
2022-08-31T05:21:32.136Z,14.40
2022-08-31T05:24:04.885Z,8.63
2022-08-31T05:26:37.381Z,10.63
2022-08-31T05:29:09.471Z,10.10
2022-08-31T05:31:38.008Z,12.68
2022-08-31T05:34:05.807Z,8.65
2022-08-31T05:36:33.093Z,11.48
2022-08-31T05:39:01.412Z,11.82
2022-08-31T05:41:29.430Z,13.40
2022-08-31T05:43:56.226Z,11.13
2022-08-31T05:46:23.074Z,8.65
2022-08-31T05:48:49.994Z,15.75
2022-08-31T05:51:18.522Z,10.95
2022-08-31T05:53:45.642Z,12.38
2022-08-31T05:56:15.732Z,11.38
2022-08-31T05:58:46.599Z,12.65
2022-08-31T06:01:25.750Z,9.80
2022-08-31T06:03:54.358Z,6.75
2022-08-31T06:06:21.350Z,8.45
2022-08-31T06:08:48.009Z,9.68
2022-08-31T06:11:19.564Z,10.32
2022-08-31T06:13:47.863Z,11.55
2022-08-31T06:16:14.707Z,7.40
2022-08-31T06:18:42.149Z,7.35
2022-08-31T06:21:12.628Z,14.15
2022-08-31T06:23:42.469Z,7.30
2022-08-31T06:26:14.657Z,9.57
2022-08-31T06:28:43.771Z,7.32
2022-08-31T06:31:18.539Z,11.00
2022-08-31T06:33:47.678Z,7.28
2022-08-31T06:36:18.116Z,6.13
2022-08-31T06:38:46.160Z,7.68
2022-08-31T06:41:17.256Z,6.07
2022-08-31T06:43:45.018Z,6.50
2022-08-31T06:46:12.888Z,7.05
2022-08-31T06:48:41.684Z,10.32
2022-08-31T06:51:09.294Z,10.18
2022-08-31T06:53:37.710Z,7.43
2022-08-31T06:56:20.562Z,9.70
2022-08-31T06:58:49.331Z,14.23
2022-08-31T07:01:29.424Z,9.20
2022-08-31T07:04:06.526Z,7.65
2022-08-31T07:06:39.183Z,7.90
2022-08-31T07:09:08.739Z,12.50
2022-08-31T07:11:44.933Z,10.18
2022-08-31T07:14:14.454Z,8.63
2022-08-31T07:16:42.761Z,7.40
2022-08-31T07:19:10.544Z,8.20
2022-08-31T07:21:43.564Z,7.40
2022-08-31T07:24:11.332Z,13.75
2022-08-31T07:26:39.641Z,9.20
2022-08-31T07:29:08.060Z,9.50
2022-08-31T07:31:56.231Z,8.25
2022-08-31T07:34:29.082Z,5.30
2022-08-31T07:37:17.370Z,7.55
2022-08-31T07:40:07.470Z,5.40
2022-08-31T07:42:41.199Z,5.72
2022-08-31T07:45:22.947Z,7.63
2022-08-31T07:47:52.308Z,6.90
2022-08-31T07:50:20.536Z,5.40
2022-08-31T07:52:54.571Z,6.65
2022-08-31T07:55:23.867Z,7.07
2022-08-31T07:57:53.420Z,5.68
2022-08-31T08:00:22.042Z,8.25
2022-08-31T08:02:52.699Z,6.53
2022-08-31T08:05:27.480Z,5.07
2022-08-31T08:07:58.936Z,5.03
2022-08-31T08:10:27.715Z,5.18
2022-08-31T08:13:04.211Z,4.93
2022-08-31T08:15:35.737Z,9.77
2022-08-31T08:18:04.544Z,7.13
2022-08-31T08:20:34.094Z,10.05
2022-08-31T08:23:14.556Z,7.70
2022-08-31T08:25:43.147Z,7.15
2022-08-31T08:28:39.370Z,5.13
2022-08-31T08:31:11.394Z,5.35
2022-08-31T08:33:38.260Z,5.32
2022-08-31T08:36:08.298Z,4.78
2022-08-31T08:38:39.257Z,4.45
2022-08-31T08:41:12.742Z,4.50
2022-08-31T08:43:44.369Z,4.57
2022-08-31T08:46:34.487Z,5.93
2022-08-31T08:49:15.716Z,5.63
2022-08-31T08:51:43.829Z,4.45
2022-08-31T08:54:15.151Z,7.95
2022-08-31T08:56:47.820Z,5.95
2022-08-31T08:59:19.692Z,6.95
2022-08-31T09:01:49.328Z,10.38
2022-08-31T09:04:18.784Z,4.63
2022-08-31T09:07:27.356Z,6.15
2022-08-31T09:10:05.743Z,5.43
2022-08-31T09:13:01.767Z,3.95
2022-08-31T09:15:31.934Z,4.65
2022-08-31T09:18:16.455Z,5.05
2022-08-31T09:20:43.394Z,4.68
2022-08-31T09:23:12.329Z,4.25
2022-08-31T09:25:52.622Z,5.07
2022-08-31T09:28:36.276Z,5.28
2022-08-31T09:31:03.871Z,7.25
2022-08-31T09:33:34.402Z,5.13
2022-08-31T09:36:25.370Z,5.25
2022-08-31T09:38:52.295Z,7.10
2022-08-31T09:41:37.508Z,5.53
2022-08-31T09:44:22.283Z,5.97
2022-08-31T09:46:51.715Z,5.57
2022-08-31T09:49:25.413Z,5.90
2022-08-31T09:51:52.360Z,5.50
2022-08-31T09:54:45.996Z,9.25
2022-08-31T09:57:13.933Z,5.55
2022-08-31T09:59:49.383Z,6.70
2022-08-31T10:02:22.813Z,6.28
2022-08-31T10:05:01.236Z,8.15
2022-08-31T10:07:47.923Z,5.07
2022-08-31T10:10:30.017Z,5.85
2022-08-31T10:13:13.110Z,5.35
2022-08-31T10:15:48.517Z,6.30
2022-08-31T10:19:01.400Z,6.38
2022-08-31T10:21:38.422Z,6.03
2022-08-31T10:24:18.613Z,4.88
2022-08-31T10:26:51.177Z,5.97
2022-08-31T10:29:30.062Z,8.13
2022-08-31T10:32:00.473Z,6.05
2022-08-31T10:34:52.656Z,5.65
2022-08-31T10:37:38.689Z,6.28
2022-08-31T10:40:14.020Z,5.63
2022-08-31T10:42:59.570Z,6.70
2022-08-31T10:45:30.810Z,6.28
2022-08-31T10:47:57.595Z,7.47
2022-08-31T10:50:52.743Z,7.13
2022-08-31T10:53:31.996Z,6.53
2022-08-31T10:56:14.397Z,7.65
2022-08-31T10:59:05.548Z,6.35
2022-08-31T11:01:56.520Z,10.18
2022-08-31T11:04:29.424Z,11.00
2022-08-31T11:07:05.065Z,7.60
2022-08-31T11:09:55.008Z,10.43
2022-08-31T11:12:30.903Z,9.35
2022-08-31T11:15:31.364Z,8.43
2022-08-31T11:18:16.609Z,8.82
2022-08-31T11:21:12.432Z,10.98
2022-08-31T11:23:57.544Z,8.43
2022-08-31T11:26:39.176Z,9.55
2022-08-31T11:29:14.865Z,9.35
2022-08-31T11:31:42.119Z,13.50
2022-08-31T11:34:24.697Z,8.85
2022-08-31T11:36:57.453Z,8.55
2022-08-31T11:39:39.399Z,12.40
2022-08-31T11:42:27.741Z,15.38
2022-08-31T11:45:27.647Z,8.73
2022-08-31T11:47:55.077Z,16.38
2022-08-31T11:50:21.750Z,12.57
2022-08-31T11:52:52.186Z,8.57
2022-08-31T11:55:26.887Z,12.15
2022-08-31T11:58:10.218Z,14.90
2022-08-31T12:00:42.640Z,11.15
2022-08-31T12:03:10.783Z,8.38
2022-08-31T12:05:58.188Z,7.40
2022-08-31T12:08:52.155Z,8.50
2022-08-31T12:11:27.137Z,18.23
2022-08-31T12:14:08.975Z,9.52
2022-08-31T12:16:51.098Z,7.28
2022-08-31T12:20:01.633Z,7.05
2022-08-31T12:23:05.445Z,6.90
2022-08-31T12:25:45.103Z,8.40
2022-08-31T12:28:31.994Z,9.23
2022-08-31T12:31:05.929Z,7.28
2022-08-31T12:33:34.164Z,11.05
2022-08-31T12:36:19.391Z,9.80
2022-08-31T12:38:46.238Z,8.00
2022-08-31T12:41:14.588Z,7.25
2022-08-31T12:43:49.309Z,10.82
2022-08-31T12:46:43.440Z,8.50
2022-08-31T12:49:38.327Z,9.60
2022-08-31T12:52:13.739Z,7.47
2022-08-31T12:54:43.276Z,8.50
2022-08-31T12:57:12.954Z,10.98
2022-08-31T13:00:17.738Z,6.45
2022-08-31T13:02:47.376Z,16.17
2022-08-31T13:05:23.216Z,12.73
2022-08-31T13:07:50.564Z,7.15
2022-08-31T13:10:31.401Z,8.90
2022-08-31T13:13:01.548Z,10.98
2022-08-31T13:15:39.144Z,12.50
2022-08-31T13:18:22.636Z,10.00
2022-08-31T13:21:04.231Z,7.82
2022-08-31T13:23:32.181Z,9.23
2022-08-31T13:26:19.966Z,9.30
2022-08-31T13:28:54.786Z,5.65
2022-08-31T13:31:25.051Z,6.72
2022-08-31T13:33:56.997Z,4.50
2022-08-31T13:36:32.553Z,7.45
2022-08-31T13:39:04.409Z,5.80
2022-08-31T13:41:39.033Z,4.72
2022-08-31T13:44:11.435Z,4.68
2022-08-31T13:46:44.471Z,4.75
2022-08-31T13:49:35.829Z,4.07
2022-08-31T13:52:14.575Z,6.63
2022-08-31T13:54:43.076Z,4.38
2022-08-31T13:57:28.396Z,6.60
2022-08-31T14:00:34.564Z,3.88
2022-08-31T14:03:33.541Z,5.25
2022-08-31T14:06:24.070Z,5.47
2022-08-31T14:08:55.370Z,5.88
2022-08-31T14:11:28.501Z,5.50
2022-08-31T14:14:04.316Z,6.03
2022-08-31T14:16:35.720Z,6.72
2022-08-31T14:19:02.696Z,6.15
2022-08-31T14:21:32.356Z,6.03
2022-08-31T14:24:04.628Z,6.22
2022-08-31T14:26:41.619Z,6.40
2022-08-31T14:29:13.999Z,6.38
2022-08-31T14:31:54.938Z,6.50
2022-08-31T14:34:34.063Z,8.70
2022-08-31T14:37:08.105Z,7.15
2022-08-31T14:39:34.825Z,6.75
2022-08-31T14:42:08.427Z,6.65
2022-08-31T14:44:41.610Z,7.10
2022-08-31T14:47:09.771Z,7.07
2022-08-31T14:49:37.187Z,8.98
2022-08-31T14:52:06.391Z,7.82
2022-08-31T14:54:37.484Z,7.15
2022-08-31T14:57:12.756Z,11.68
2022-08-31T14:59:42.164Z,11.25
2022-08-31T15:02:11.874Z,11.55
2022-08-31T15:04:42.969Z,10.38
2022-08-31T15:07:13.630Z,7.63
2022-08-31T15:09:43.314Z,12.65
2022-08-31T15:12:14.700Z,7.57
2022-08-31T15:14:43.341Z,8.25
2022-08-31T15:17:18.759Z,6.72
2022-08-31T15:19:48.143Z,5.22
2022-08-31T15:22:16.024Z,7.60
2022-08-31T15:24:44.933Z,7.60
2022-08-31T15:27:15.630Z,8.18
2022-08-31T15:29:45.698Z,8.35
2022-08-31T15:32:16.589Z,7.25
2022-08-31T15:34:51.217Z,7.32
2022-08-31T15:37:17.935Z,6.97
2022-08-31T15:39:49.013Z,8.02
2022-08-31T15:42:20.536Z,6.47
2022-08-31T15:44:56.002Z,7.53
2022-08-31T15:47:47.203Z,11.30
2022-08-31T15:50:19.079Z,6.78
2022-08-31T15:52:51.753Z,6.65
2022-08-31T15:55:23.314Z,6.82
2022-08-31T15:57:54.510Z,7.85
2022-08-31T16:00:26.418Z,8.40
2022-08-31T16:02:55.976Z,6.30
2022-08-31T16:05:24.832Z,7.07
2022-08-31T16:07:52.152Z,5.90
2022-08-31T16:10:20.281Z,6.05
2022-08-31T16:12:47.648Z,7.30
2022-08-31T16:15:15.643Z,6.75
2022-08-31T16:17:42.531Z,6.47
2022-08-31T16:20:11.705Z,7.88
2022-08-31T16:22:39.083Z,8.35
2022-08-31T16:25:07.003Z,7.55
2022-08-31T16:27:34.331Z,7.38
2022-08-31T16:30:01.362Z,7.50
2022-08-31T16:32:27.978Z,6.88
2022-08-31T16:34:54.959Z,7.90
2022-08-31T16:37:21.741Z,8.88
2022-08-31T16:39:48.608Z,7.78
2022-08-31T16:42:15.946Z,10.15
2022-08-31T16:44:45.987Z,8.55
2022-08-31T16:47:14.612Z,10.00
2022-08-31T16:49:43.409Z,8.38
2022-08-31T16:52:14.750Z,8.13
2022-08-31T16:54:45.073Z,8.23
2022-08-31T16:57:13.983Z,9.13
2022-08-31T16:59:41.486Z,8.70
2022-08-31T17:02:11.858Z,9.27
2022-08-31T17:04:52.190Z,12.23
2022-08-31T17:07:20.582Z,12.68
2022-08-31T17:09:48.338Z,14.35
2022-08-31T17:12:19.233Z,10.55
2022-08-31T17:14:50.068Z,9.68
2022-08-31T17:17:21.848Z,11.43
2022-08-31T17:19:49.160Z,8.27
2022-08-31T17:22:24.422Z,9.13
2022-08-31T17:24:57.583Z,8.48
2022-08-31T17:27:26.758Z,9.57
2022-08-31T17:29:56.284Z,11.55
2022-08-31T17:32:26.605Z,9.35
2022-08-31T17:34:54.677Z,11.85
2022-08-31T17:37:26.143Z,11.70
2022-08-31T17:39:53.846Z,14.05
2022-08-31T17:42:22.568Z,12.18
2022-08-31T17:44:53.019Z,10.15
2022-08-31T17:47:21.905Z,11.52
2022-08-31T17:49:51.174Z,11.23
2022-08-31T17:52:20.689Z,13.25
2022-08-31T17:54:48.463Z,15.50
2022-08-31T17:57:17.153Z,12.73
2022-08-31T17:59:46.804Z,20.27
2022-08-31T18:02:19.312Z,17.33
2022-08-31T18:04:46.384Z,16.48
2022-08-31T18:07:13.614Z,17.00
2022-08-31T18:09:44.394Z,13.55
2022-08-31T18:12:11.630Z,10.80
2022-08-31T18:14:39.129Z,12.55
2022-08-31T18:17:10.359Z,13.18
2022-08-31T18:19:37.909Z,11.65
2022-08-31T18:22:05.875Z,11.65
2022-08-31T18:24:35.709Z,12.90
2022-08-31T18:27:07.017Z,12.45
2022-08-31T18:29:35.868Z,12.23
2022-08-31T18:32:05.263Z,12.15
2022-08-31T18:34:35.189Z,11.93
2022-08-31T18:37:02.421Z,19.05
2022-08-31T18:39:51.195Z,10.60
2022-08-31T18:42:37.757Z,11.52
2022-08-31T18:45:19.575Z,12.55
2022-08-31T18:48:23.965Z,12.95
2022-08-31T18:50:49.824Z,12.60
2022-08-31T18:53:28.639Z,14.63
2022-08-31T18:56:06.177Z,13.52
2022-08-31T18:58:33.541Z,13.05
2022-08-31T19:01:00.305Z,14.85
2022-08-31T19:03:28.443Z,17.65
2022-08-31T19:05:57.060Z,17.05
2022-08-31T19:08:24.220Z,18.35
2022-08-31T19:10:51.390Z,19.95
2022-08-31T19:13:18.250Z,18.38
2022-08-31T19:15:45.697Z,19.83
2022-08-31T19:18:12.639Z,17.05
2022-08-31T19:20:41.183Z,14.68
2022-08-31T19:23:08.272Z,14.60
2022-08-31T19:25:42.329Z,15.32
2022-08-31T19:28:09.354Z,15.05
2022-08-31T19:30:37.679Z,14.15
2022-08-31T19:33:08.573Z,14.95
2022-08-31T19:35:36.435Z,14.52
2022-08-31T19:38:03.548Z,14.15
2022-08-31T19:40:38.650Z,14.50
2022-08-31T19:45:54.268Z,12.98
2022-08-31T19:48:23.714Z,13.45
2022-08-31T19:50:51.864Z,13.85
2022-08-31T19:53:21.932Z,13.73
2022-08-31T19:55:53.493Z,13.07
2022-08-31T19:58:26.661Z,12.70
2022-08-31T20:01:00.738Z,13.30
2022-08-31T20:03:28.273Z,14.73
2022-08-31T20:05:55.138Z,16.25
2022-08-31T20:08:21.831Z,14.95
2022-08-31T20:10:48.488Z,14.18
2022-08-31T20:13:15.224Z,14.45
2022-08-31T20:15:44.862Z,14.15
2022-08-31T20:18:12.735Z,16.10
2022-08-31T20:20:48.480Z,12.77
2022-08-31T20:23:18.643Z,12.25
2022-08-31T20:25:47.816Z,13.65
2022-08-31T20:28:15.184Z,12.85
2022-08-31T20:30:43.644Z,13.52
2022-08-31T20:33:11.373Z,12.90
2022-08-31T20:35:47.592Z,12.60
2022-08-31T20:38:16.996Z,13.50
2022-08-31T20:40:45.160Z,13.80
2022-08-31T20:43:14.023Z,11.50
2022-08-31T20:45:42.253Z,11.88
2022-08-31T20:48:28.386Z,12.55
2022-08-31T20:50:56.217Z,14.43
2022-08-31T20:53:42.333Z,14.20
2022-08-31T20:56:17.433Z,13.77
2022-08-31T20:58:45.794Z,12.95
2022-08-31T21:01:13.899Z,13.73
2022-08-31T21:03:41.033Z,12.32
2022-08-31T21:06:11.576Z,13.10
2022-08-31T21:08:41.427Z,12.63
2022-08-31T21:11:16.019Z,13.02
2022-08-31T21:13:44.646Z,12.57
2022-08-31T21:16:11.968Z,12.80
2022-08-31T21:18:40.446Z,11.90
2022-08-31T21:21:10.865Z,12.10
2022-08-31T21:23:38.686Z,12.20
2022-08-31T21:26:08.557Z,13.35
2022-08-31T21:28:39.446Z,12.35
2022-08-31T21:31:15.390Z,13.13
2022-08-31T21:33:44.574Z,12.77
2022-08-31T21:36:17.597Z,13.38
2022-08-31T21:38:45.151Z,12.52
2022-08-31T21:41:14.700Z,13.70
2022-08-31T21:43:41.511Z,14.00
2022-08-31T21:46:14.673Z,13.77
2022-08-31T21:48:43.719Z,14.80
2022-08-31T21:51:20.831Z,16.30
2022-08-31T21:53:52.089Z,21.90
2022-08-31T21:56:21.115Z,14.93
2022-08-31T21:58:47.874Z,15.15
2022-08-31T22:01:18.467Z,15.10
2022-08-31T22:03:47.363Z,15.38
2022-08-31T22:06:22.200Z,14.88
2022-08-31T22:09:00.240Z,13.80
2022-08-31T22:11:30.919Z,13.35
2022-08-31T22:13:59.451Z,14.00
2022-08-31T22:16:27.956Z,12.82
2022-08-31T22:19:02.400Z,13.05
2022-08-31T22:21:34.220Z,14.98
2022-08-31T22:24:04.802Z,13.10
2022-08-31T22:26:36.279Z,14.00
2022-08-31T22:29:06.207Z,12.95
2022-08-31T22:31:37.061Z,13.27
2022-08-31T22:34:05.566Z,13.40
2022-08-31T22:36:33.037Z,13.45
2022-08-31T22:39:07.047Z,14.23
2022-08-31T22:41:35.839Z,13.85
2022-08-31T22:44:03.291Z,13.55
2022-08-31T22:46:30.092Z,14.90
2022-08-31T22:48:58.135Z,13.85
2022-08-31T22:51:25.203Z,14.23
2022-08-31T22:53:51.926Z,13.68
2022-08-31T22:56:26.170Z,14.48
2022-08-31T22:58:55.395Z,14.20
2022-08-31T23:01:34.207Z,14.35
2022-08-31T23:04:06.942Z,14.82
2022-08-31T23:06:36.257Z,14.52
2022-08-31T23:09:06.027Z,14.23
2022-08-31T23:11:32.667Z,13.70
2022-08-31T23:14:02.965Z,12.88
2022-08-31T23:16:36.932Z,11.32
2022-08-31T23:19:12.383Z,12.30
2022-08-31T23:21:52.889Z,12.23
2022-08-31T23:24:40.876Z,12.98
2022-08-31T23:27:10.476Z,12.50
2022-08-31T23:29:47.992Z,13.10
2022-08-31T23:32:19.435Z,12.13
2022-08-31T23:34:50.079Z,12.05
2022-08-31T23:37:17.927Z,11.55
2022-08-31T23:39:46.335Z,11.57
2022-08-31T23:42:14.591Z,12.90
2022-08-31T23:44:43.814Z,12.55
2022-08-31T23:47:17.058Z,13.05
2022-08-31T23:49:46.008Z,15.63
2022-08-31T23:52:18.445Z,14.20
2022-08-31T23:54:46.132Z,16.00
2022-08-31T23:57:32.854Z,14.93
